Time;durP1;ratioP1;P1;durP2;ratioP2;P2;SDS_P1;SDS_P2;PMS_P1;PMS_P2;Temp;Humidity;BMP_temperature;BMP_pressure;BME280_temperature;BME280_humidity;BME280_pressure;Samples;Min_cycle;Max_cycle;Signal;HPM_P1;HPM_P2
2022/11/15 00:00:26;;;;;;;224.48;68.85;;;4.70;99.90;;;;;;5033472;28;20026;-72
2022/11/15 00:02:52;;;;;;;186.95;64.45;;;4.70;99.90;;;;;;5032995;28;20061;-70
2022/11/15 00:05:18;;;;;;;210.27;65.50;;;4.70;99.90;;;;;;5030630;28;20417;-72
2022/11/15 00:07:44;;;;;;;211.15;65.95;;;4.70;99.90;;;;;;5033733;28;20029;-72
2022/11/15 00:10:09;;;;;;;193.73;64.43;;;4.70;99.90;;;;;;5023507;28;20037;-72
2022/11/15 00:12:35;;;;;;;177.32;60.38;;;4.70;99.90;;;;;;5013846;28;20029;-72
2022/11/15 00:15:00;;;;;;;180.02;59.05;;;4.60;99.90;;;;;;5015705;28;20030;-71
2022/11/15 00:17:26;;;;;;;190.15;61.92;;;4.50;99.90;;;;;;5013318;28;20040;-72
2022/11/15 00:19:52;;;;;;;163.63;56.58;;;4.50;99.90;;;;;;5014290;28;20014;-71
2022/11/15 00:22:17;;;;;;;161.85;57.60;;;4.40;99.90;;;;;;5033038;28;20028;-72
2022/11/15 00:24:43;;;;;;;172.23;55.47;;;4.40;99.90;;;;;;5014939;28;20496;-72
2022/11/15 00:27:08;;;;;;;179.95;59.05;;;4.30;99.90;;;;;;5030706;28;20079;-72
2022/11/15 00:29:34;;;;;;;174.32;60.10;;;4.30;99.90;;;;;;5037064;28;20468;-72
2022/11/15 00:31:59;;;;;;;191.52;64.60;;;4.40;99.90;;;;;;5036546;28;20026;-71
2022/11/15 00:34:25;;;;;;;203.70;64.22;;;4.50;99.90;;;;;;5037172;28;20030;-72
2022/11/15 00:36:50;;;;;;;216.52;69.38;;;4.60;99.90;;;;;;5035945;28;20062;-73
2022/11/15 00:39:16;;;;;;;228.90;69.88;;;4.70;99.90;;;;;;5019452;28;20030;-72
2022/11/15 00:41:41;;;;;;;219.32;69.47;;;4.80;99.90;;;;;;5016934;28;20021;-72
2022/11/15 00:44:07;;;;;;;196.80;63.95;;;4.80;99.90;;;;;;5018850;28;20038;-72
2022/11/15 00:46:32;;;;;;;212.63;67.00;;;4.80;99.90;;;;;;5017239;28;20029;-72
2022/11/15 00:48:58;;;;;;;220.85;67.57;;;4.90;99.90;;;;;;5021847;28;20033;-72
2022/11/15 00:51:24;;;;;;;228.90;66.32;;;4.90;99.90;;;;;;5036329;28;20037;-72
2022/11/15 00:53:49;;;;;;;198.60;67.65;;;4.80;99.90;;;;;;5035636;28;20036;-72
2022/11/15 00:56:15;;;;;;;211.77;67.80;;;4.90;99.90;;;;;;5032977;28;20117;-71
2022/11/15 00:58:40;;;;;;;202.68;67.88;;;5.00;99.90;;;;;;5036208;28;20481;-72
2022/11/15 01:01:08;;;;;;;236.70;74.03;;;5.10;99.90;;;;;;5032196;28;20105;-72
2022/11/15 01:03:35;;;;;;;226.43;73.65;;;5.20;99.90;;;;;;5033000;28;20026;-71
2022/11/15 01:06:00;;;;;;;214.48;71.55;;;5.40;99.90;;;;;;5036511;28;20040;-72
2022/11/15 01:08:26;;;;;;;224.52;72.60;;;5.40;99.90;;;;;;5034383;28;20038;-71
2022/11/15 01:10:51;;;;;;;224.65;71.63;;;5.50;99.90;;;;;;5017703;28;20029;-72
2022/11/15 01:13:17;;;;;;;210.52;69.53;;;5.60;99.90;;;;;;5014478;28;20120;-71
2022/11/15 01:15:43;;;;;;;240.23;72.65;;;5.70;99.90;;;;;;5000634;28;20061;-72
2022/11/15 01:18:11;;;;;;;242.48;74.90;;;5.70;99.90;;;;;;5016105;28;20033;-72
2022/11/15 01:20:41;;;;;;;226.30;73.85;;;5.80;99.90;;;;;;5028011;28;20029;-72
2022/11/15 01:23:07;;;;;;;224.75;75.20;;;5.90;99.90;;;;;;5034385;28;20028;-72
2022/11/15 01:25:33;;;;;;;244.38;74.45;;;6.00;99.90;;;;;;5030987;28;20022;-72
2022/11/15 01:27:58;;;;;;;213.15;73.50;;;6.00;99.90;;;;;;5014596;28;20026;-72
2022/11/15 01:30:24;;;;;;;206.15;73.50;;;6.10;99.90;;;;;;4998649;28;20018;-71
2022/11/15 01:32:49;;;;;;;236.30;77.18;;;6.10;99.90;;;;;;5017853;28;20035;-72
2022/11/15 01:35:15;;;;;;;226.65;73.82;;;6.20;99.90;;;;;;5035742;28;20021;-72
2022/11/15 01:37:40;;;;;;;221.77;74.32;;;6.20;99.90;;;;;;5023512;28;20038;-72
2022/11/15 01:40:06;;;;;;;242.30;77.78;;;6.20;99.90;;;;;;5016017;28;20025;-72
2022/11/15 01:42:32;;;;;;;207.75;73.18;;;6.30;99.90;;;;;;5016721;28;20025;-72
2022/11/15 01:44:57;;;;;;;227.93;73.68;;;6.30;99.90;;;;;;5017061;28;20026;-72
2022/11/15 01:47:34;;;;;;;223.02;70.55;;;6.40;99.90;;;;;;5020485;28;20044;-73
2022/11/15 01:50:14;;;;;;;219.68;72.70;;;6.30;99.90;;;;;;5033258;28;20071;-71
2022/11/15 01:52:40;;;;;;;206.25;69.22;;;6.40;99.90;;;;;;5030973;28;20055;-72
2022/11/15 01:55:11;;;;;;;220.27;70.80;;;6.40;99.90;;;;;;5030870;28;20040;-72
2022/11/15 01:57:38;;;;;;;228.02;75.53;;;6.40;99.90;;;;;;5010557;28;20029;-72
2022/11/15 02:00:05;;;;;;;211.10;71.25;;;6.40;99.90;;;;;;5033582;28;20030;-72
2022/11/15 02:02:32;;;;;;;201.15;68.22;;;6.50;99.90;;;;;;5034216;28;20029;-71
2022/11/15 02:04:58;;;;;;;220.02;73.78;;;6.50;99.90;;;;;;5035021;28;20025;-72
2022/11/15 02:07:24;;;;;;;203.38;67.13;;;6.50;99.90;;;;;;5033034;28;20037;-72
2022/11/15 02:09:51;;;;;;;212.73;71.68;;;6.50;99.90;;;;;;5035117;28;20036;-72
2022/11/15 02:12:21;;;;;;;219.70;71.03;;;6.50;99.90;;;;;;5030172;28;20033;-72
2022/11/15 02:14:51;;;;;;;184.90;67.55;;;6.50;99.90;;;;;;5016391;28;20109;-72
2022/11/15 02:17:32;;;;;;;203.18;70.80;;;6.50;99.90;;;;;;5034495;28;20034;-72
2022/11/15 02:20:03;;;;;;;201.20;67.15;;;6.50;99.90;;;;;;5004332;28;20029;-72
2022/11/15 02:23:19;;;;;;;180.52;64.03;;;6.50;99.90;;;;;;5015177;28;20053;-72
2022/11/15 02:26:09;;;;;;;161.18;59.38;;;6.60;99.90;;;;;;4918105;29;20036;-72
2022/11/15 02:29:10;;;;;;;183.95;62.08;;;6.60;99.90;;;;;;4935348;29;20035;-72
2022/11/15 02:31:57;;;;;;;180.93;65.03;;;6.60;99.90;;;;;;5003782;28;20034;-72
2022/11/15 02:34:51;;;;;;;173.18;62.67;;;6.60;99.90;;;;;;5032550;28;20455;-72
2022/11/15 02:37:41;;;;;;;185.93;64.93;;;6.60;99.90;;;;;;5033720;28;20048;-71
2022/11/15 02:40:38;;;;;;;179.80;64.55;;;6.60;99.90;;;;;;5014860;28;20104;-72
2022/11/15 02:49:19;;;;;;;172.00;61.13;;;6.70;99.90;;;;;;5014522;28;20091;-72
2022/11/15 02:51:48;;;;;;;161.43;62.22;;;6.70;99.90;;;;;;5013998;28;20026;-72
2022/11/15 02:54:26;;;;;;;150.48;59.53;;;6.70;99.90;;;;;;5014101;28;20026;-72
2022/11/15 02:57:00;;;;;;;165.77;62.92;;;6.70;99.90;;;;;;5014714;28;20416;-72
2022/11/15 02:59:47;;;;;;;161.43;60.45;;;6.70;99.90;;;;;;5014824;28;20474;-72
2022/11/15 03:02:31;;;;;;;150.93;61.33;;;6.70;99.90;;;;;;5014617;28;20025;-72
2022/11/15 03:05:35;;;;;;;152.77;61.15;;;6.70;99.90;;;;;;5014154;28;20072;-72
2022/11/15 03:08:10;;;;;;;159.13;59.85;;;6.70;99.90;;;;;;5013939;28;20501;-72
2022/11/15 03:10:51;;;;;;;147.07;59.10;;;6.70;99.90;;;;;;5014382;28;20113;-72
2022/11/15 03:13:26;;;;;;;149.60;57.80;;;6.70;99.90;;;;;;5014289;28;20029;-72
2022/11/15 03:16:04;;;;;;;147.73;60.67;;;6.70;99.90;;;;;;5014257;28;20038;-72
2022/11/15 03:18:36;;;;;;;143.13;54.83;;;6.70;99.90;;;;;;5013716;28;20114;-72
2022/11/15 03:21:07;;;;;;;150.98;59.55;;;6.70;99.90;;;;;;5013937;28;20018;-72
2022/11/15 03:23:35;;;;;;;134.90;57.58;;;6.70;99.90;;;;;;5014266;28;20105;-72
2022/11/15 03:26:01;;;;;;;134.10;55.60;;;6.60;99.90;;;;;;5013276;28;20389;-72
2022/11/15 03:28:37;;;;;;;142.82;58.45;;;6.60;99.90;;;;;;5029067;28;20030;-72
2022/11/15 03:31:46;;;;;;;145.05;58.22;;;6.60;99.90;;;;;;5013835;28;20504;-72
2022/11/15 03:33:53;;;;;;;131.18;55.63;;;6.50;99.90;;;;;;5013711;28;20042;-72
2022/11/15 03:36:21;;;;;;;124.38;53.50;;;6.40;99.90;;;;;;5013802;28;20033;-72
2022/11/15 03:38:48;;;;;;;134.77;53.47;;;6.30;99.90;;;;;;5013420;28;20034;-72
2022/11/15 03:41:39;;;;;;;131.90;53.63;;;6.10;99.90;;;;;;5013642;28;20111;-72
2022/11/15 03:44:41;;;;;;;114.32;50.85;;;5.90;99.90;;;;;;5014031;28;20072;-72
2022/11/15 03:47:16;;;;;;;107.95;47.67;;;5.70;99.90;;;;;;5013677;28;20033;-72
2022/11/15 03:49:51;;;;;;;107.95;47.47;;;5.50;99.90;;;;;;5013343;28;20100;-72
2022/11/15 03:52:21;;;;;;;106.32;47.03;;;5.40;99.90;;;;;;5013559;28;20030;-72
2022/11/15 03:54:55;;;;;;;102.97;45.40;;;5.30;99.90;;;;;;5014044;28;20045;-72
2022/11/15 03:57:20;;;;;;;;;;;5.10;99.90;;;;;;5014544;28;20113;-72
2022/11/15 03:59:46;;;;;;;101.05;43.42;;;5.00;99.90;;;;;;5028817;28;19995;-72
2022/11/15 04:02:12;;;;;;;97.97;43.72;;;4.90;99.90;;;;;;5013297;28;20105;-72
2022/11/15 04:04:37;;;;;;;105.68;45.22;;;4.80;99.90;;;;;;5032618;28;20072;-72
2022/11/15 04:07:03;;;;;;;94.18;44.63;;;4.70;99.90;;;;;;5017849;28;20433;-72
2022/11/15 04:09:29;;;;;;;96.00;43.95;;;4.60;99.90;;;;;;5017308;28;20033;-72
2022/11/15 04:11:54;;;;;;;95.07;41.92;;;4.50;99.90;;;;;;5022328;28;20405;-72
2022/11/15 04:14:20;;;;;;;106.57;45.85;;;4.40;99.90;;;;;;5027009;28;20034;-72
2022/11/15 04:16:45;;;;;;;97.28;44.75;;;4.30;99.90;;;;;;5016636;28;20034;-72
2022/11/15 04:24:39;;;;;;;;;;;4.20;99.90;;;;;;5017418;28;20065;-72
2022/11/15 04:27:04;;;;;;;99.88;43.13;;;4.20;99.90;;;;;;5016954;28;19948;-72
2022/11/15 04:29:36;;;;;;;113.55;48.35;;;4.10;99.90;;;;;;5016361;28;20021;-72
2022/11/15 04:32:03;;;;;;;100.88;44.65;;;4.10;99.90;;;;;;5017049;28;20073;-72
2022/11/15 04:34:29;;;;;;;118.50;46.25;;;4.10;99.90;;;;;;5016824;28;20034;-72
2022/11/15 04:37:12;;;;;;;100.97;44.03;;;4.10;99.90;;;;;;5016895;28;20488;-72
2022/11/15 04:39:42;;;;;;;100.97;46.60;;;4.10;99.90;;;;;;5015594;28;20073;-72
2022/11/15 04:42:09;;;;;;;127.30;49.38;;;4.00;99.90;;;;;;4998619;28;20030;-72
2022/11/15 04:44:34;;;;;;;116.88;47.03;;;4.00;99.90;;;;;;5016884;28;20026;-72
2022/11/15 04:47:00;;;;;;;113.03;47.15;;;4.00;99.90;;;;;;5017079;28;20028;-72
2022/11/15 04:49:25;;;;;;;109.78;47.35;;;4.00;99.90;;;;;;5016909;28;20033;-72
2022/11/15 04:51:51;;;;;;;117.32;48.13;;;4.00;99.90;;;;;;5015899;28;20465;-72
2022/11/15 04:54:16;;;;;;;116.50;49.75;;;3.90;99.90;;;;;;5092199;23;20056;-69
2022/11/15 04:56:42;;;;;;;115.88;48.78;;;4.00;99.90;;;;;;5076041;28;20085;-69
2022/11/15 04:59:08;;;;;;;130.68;50.75;;;4.00;99.90;;;;;;5076091;28;20115;-69
2022/11/15 05:01:33;;;;;;;129.18;50.85;;;4.10;99.90;;;;;;5075365;28;20064;-69
2022/11/15 05:06:43;;;;;;;;;;;4.10;99.90;;;;;;5076834;28;20394;-69
2022/11/15 05:09:08;;;;;;;122.40;48.65;;;4.20;99.90;;;;;;5075711;28;19995;-69
2022/11/15 05:11:34;;;;;;;131.70;53.08;;;4.20;99.90;;;;;;5075843;28;20499;-69
2022/11/15 05:13:59;;;;;;;144.07;52.83;;;4.20;99.90;;;;;;5074846;28;20396;-69
2022/11/15 05:16:25;;;;;;;136.98;53.67;;;4.20;99.90;;;;;;5076545;28;20020;-69
2022/11/15 05:18:52;;;;;;;116.65;49.58;;;4.20;99.90;;;;;;5075715;28;20040;-69
2022/11/15 05:21:18;;;;;;;125.28;51.38;;;4.10;99.90;;;;;;5075680;28;20056;-69
2022/11/15 05:23:43;;;;;;;133.50;51.67;;;4.00;99.90;;;;;;5075687;28;20063;-69
2022/11/15 05:26:09;;;;;;;118.88;50.28;;;3.90;99.90;;;;;;5074903;28;20028;-69
2022/11/15 05:28:36;;;;;;;119.68;50.97;;;3.90;99.90;;;;;;5075279;28;20028;-69
2022/11/15 05:31:06;;;;;;;115.03;45.95;;;3.80;99.90;;;;;;5075239;28;20107;-69
2022/11/15 05:33:33;;;;;;;109.25;47.25;;;3.70;99.90;;;;;;5075247;28;20117;-69
2022/11/15 05:36:16;;;;;;;126.57;47.47;;;3.60;99.90;;;;;;5075377;28;20071;-69
2022/11/15 05:38:41;;;;;;;126.87;51.07;;;3.60;99.90;;;;;;5073421;28;20024;-69
2022/11/15 05:41:08;;;;;;;118.78;49.45;;;3.50;99.90;;;;;;5075313;28;20032;-69
2022/11/15 05:43:38;;;;;;;111.50;48.67;;;3.50;99.90;;;;;;5075224;28;20074;-69
2022/11/15 05:46:04;;;;;;;119.07;49.10;;;3.50;99.90;;;;;;5075251;28;20099;-69
2022/11/15 05:48:31;;;;;;;124.15;48.63;;;3.50;99.90;;;;;;5074625;28;20028;-68
2022/11/15 05:50:57;;;;;;;125.28;50.53;;;3.50;99.90;;;;;;5075098;28;20029;-69
2022/11/15 05:53:25;;;;;;;139.38;53.50;;;3.50;99.90;;;;;;5074602;28;20040;-69
2022/11/15 05:55:51;;;;;;;141.30;52.95;;;3.60;99.90;;;;;;5072707;28;20408;-69
2022/11/15 05:58:18;;;;;;;140.63;55.28;;;3.80;99.90;;;;;;5075252;28;20029;-69
2022/11/15 06:00:44;;;;;;;128.35;54.92;;;3.90;99.90;;;;;;5074820;28;20429;-69
2022/11/15 06:03:10;;;;;;;149.90;56.15;;;3.90;99.90;;;;;;5071168;28;20025;-69
2022/11/15 06:05:36;;;;;;;132.68;52.70;;;3.90;99.90;;;;;;5069574;28;20526;-69
2022/11/15 06:08:01;;;;;;;141.85;54.85;;;3.90;99.90;;;;;;5064262;28;20052;-69
2022/11/15 06:10:27;;;;;;;161.82;58.50;;;4.10;99.90;;;;;;5068201;28;20468;-69
2022/11/15 06:13:03;;;;;;;157.50;59.35;;;4.20;99.90;;;;;;5060625;28;20480;-69
2022/11/15 06:15:29;;;;;;;142.00;55.78;;;4.30;99.90;;;;;;5054318;28;20043;-69
2022/11/15 06:17:58;;;;;;;155.93;58.15;;;4.40;99.90;;;;;;5053899;28;20021;-69
2022/11/15 06:20:28;;;;;;;159.07;58.25;;;4.30;99.90;;;;;;5054298;28;20097;-69
2022/11/15 06:23:02;;;;;;;146.38;55.72;;;4.40;99.90;;;;;;5054618;28;20033;-69
2022/11/15 06:25:28;;;;;;;147.73;57.25;;;4.40;99.90;;;;;;5053850;28;20381;-69
2022/11/15 06:27:55;;;;;;;161.98;60.90;;;4.40;99.90;;;;;;5054117;28;20028;-69
2022/11/15 06:30:21;;;;;;;171.48;62.55;;;4.60;99.90;;;;;;5053602;28;20132;-69
2022/11/15 06:32:47;;;;;;;141.00;55.75;;;4.80;99.90;;;;;;5053958;28;20464;-69
2022/11/15 06:35:13;;;;;;;142.60;57.20;;;4.90;99.90;;;;;;5054259;28;20021;-69
2022/11/15 06:37:38;;;;;;;145.88;57.67;;;5.00;99.90;;;;;;5054099;28;20111;-69
2022/11/15 06:40:04;;;;;;;146.23;57.40;;;5.00;99.90;;;;;;5072078;28;20104;-69
2022/11/15 06:42:30;;;;;;;150.00;57.83;;;5.10;99.90;;;;;;5073793;28;20414;-69
2022/11/15 06:44:55;;;;;;;142.65;58.08;;;5.20;99.90;;;;;;5074069;28;20099;-69
2022/11/15 06:47:21;;;;;;;161.32;59.42;;;5.20;99.90;;;;;;5073710;28;20032;-69
2022/11/15 06:49:46;;;;;;;138.95;52.38;;;5.30;99.90;;;;;;5073164;28;20021;-69
2022/11/15 06:52:12;;;;;;;138.40;55.80;;;5.30;99.90;;;;;;5073522;28;20103;-69
2022/11/15 06:54:37;;;;;;;128.75;52.35;;;5.40;99.90;;;;;;5073874;28;20488;-69
2022/11/15 06:57:04;;;;;;;128.38;50.80;;;5.50;99.90;;;;;;5073535;28;20025;-69
2022/11/15 06:59:30;;;;;;;125.78;51.47;;;5.50;99.90;;;;;;5073749;28;20494;-69
2022/11/15 07:01:55;;;;;;;120.38;50.13;;;5.50;99.90;;;;;;5073102;28;20067;-69
2022/11/15 07:04:21;;;;;;;139.95;56.03;;;5.50;99.90;;;;;;5073275;28;20052;-69
2022/11/15 07:06:48;;;;;;;124.50;52.33;;;5.50;99.90;;;;;;5073345;28;20035;-69
2022/11/15 07:09:13;;;;;;;131.05;51.58;;;5.60;99.90;;;;;;5073430;28;20035;-69
2022/11/15 07:11:39;;;;;;;134.15;52.53;;;5.60;99.90;;;;;;5073648;28;20032;-69
2022/11/15 07:14:04;;;;;;;135.32;54.03;;;5.60;99.90;;;;;;5054745;28;20064;-69
2022/11/15 07:16:30;;;;;;;139.00;54.83;;;5.70;99.90;;;;;;5053274;28;20033;-69
2022/11/15 07:18:55;;;;;;;121.88;53.05;;;5.70;99.90;;;;;;5053328;28;20017;-69
2022/11/15 07:21:21;;;;;;;123.15;48.92;;;5.70;99.90;;;;;;5053818;28;20120;-69
2022/11/15 07:23:46;;;;;;;119.22;49.88;;;5.80;99.90;;;;;;5053193;28;20021;-69
2022/11/15 07:26:12;;;;;;;124.60;47.58;;;5.80;99.90;;;;;;5063935;28;20028;-69
2022/11/15 07:28:37;;;;;;;122.63;49.28;;;5.90;99.90;;;;;;5073711;28;20032;-69
2022/11/15 07:31:05;;;;;;;116.80;48.60;;;5.90;99.90;;;;;;5073177;28;20036;-69
2022/11/15 07:33:31;;;;;;;119.05;52.17;;;6.00;99.90;;;;;;5072993;28;20036;-69
2022/11/15 07:36:05;;;;;;;114.72;46.58;;;6.00;99.90;;;;;;5073298;28;20519;-69
2022/11/15 07:38:31;;;;;;;128.45;50.80;;;6.10;99.90;;;;;;5072578;28;20034;-69
2022/11/15 07:40:58;;;;;;;131.73;54.85;;;6.10;99.90;;;;;;5073073;28;20071;-69
2022/11/15 07:43:24;;;;;;;123.85;49.08;;;6.10;99.90;;;;;;5062385;28;20021;-69
2022/11/15 07:45:50;;;;;;;108.93;48.10;;;6.20;99.90;;;;;;5053273;28;20032;-69
2022/11/15 07:48:15;;;;;;;117.18;48.10;;;6.20;99.90;;;;;;5052466;28;20025;-69
2022/11/15 07:50:42;;;;;;;128.20;49.92;;;6.30;99.90;;;;;;5053169;28;20508;-69
2022/11/15 07:53:09;;;;;;;113.25;48.67;;;6.40;99.90;;;;;;5053228;28;20045;-69
2022/11/15 07:55:35;;;;;;;114.60;47.10;;;6.40;99.90;;;;;;5053367;28;20029;-69
2022/11/15 07:58:05;;;;;;;110.57;45.75;;;6.40;99.90;;;;;;5053176;28;20526;-69
2022/11/15 08:00:31;;;;;;;130.77;51.63;;;6.40;99.90;;;;;;5052812;28;20033;-69
2022/11/15 08:03:09;;;;;;;105.75;44.60;;;6.50;99.90;;;;;;5052367;28;20021;-69
2022/11/15 08:05:36;;;;;;;123.85;49.47;;;6.50;99.90;;;;;;5052845;28;20048;-69
2022/11/15 08:08:02;;;;;;;92.97;42.20;;;6.50;99.90;;;;;;5052667;28;20021;-69
2022/11/15 08:10:28;;;;;;;106.25;43.95;;;6.60;99.90;;;;;;5052810;28;20036;-69
2022/11/15 08:13:05;;;;;;;109.90;46.83;;;6.60;99.90;;;;;;5053163;28;20028;-69
2022/11/15 08:15:31;;;;;;;117.50;47.83;;;6.60;99.90;;;;;;5052193;28;20171;-69
2022/11/15 08:17:58;;;;;;;107.55;47.33;;;6.60;99.90;;;;;;5051692;28;20033;-69
2022/11/15 08:20:25;;;;;;;111.82;47.05;;;6.70;99.90;;;;;;5052933;28;20029;-69
2022/11/15 08:22:51;;;;;;;114.25;47.92;;;6.70;99.90;;;;;;5052913;28;20037;-69
2022/11/15 08:25:17;;;;;;;116.78;47.13;;;6.70;99.90;;;;;;5052660;28;20392;-69
2022/11/15 08:27:43;;;;;;;103.53;46.05;;;6.70;99.90;;;;;;5052215;28;20056;-69
2022/11/15 08:30:12;;;;;;;105.05;44.17;;;6.80;99.90;;;;;;5053146;28;20071;-69
2022/11/15 08:32:37;;;;;;;110.72;47.95;;;6.90;99.90;;;;;;5052748;28;20025;-69
2022/11/15 08:35:03;;;;;;;89.93;41.65;;;7.00;99.90;;;;;;5052494;28;20031;-69
2022/11/15 08:37:29;;;;;;;102.10;44.45;;;7.10;99.90;;;;;;5051325;28;20053;-69
2022/11/15 08:39:54;;;;;;;90.68;41.50;;;7.20;99.90;;;;;;5052731;28;20060;-69
2022/11/15 08:42:20;;;;;;;101.88;44.58;;;7.30;99.90;;;;;;5053204;28;20032;-69
2022/11/15 08:44:45;;;;;;;113.50;45.15;;;7.40;99.90;;;;;;5052492;28;20017;-69
2022/11/15 08:47:12;;;;;;;100.38;44.05;;;7.40;99.90;;;;;;5052719;28;20532;-69
2022/11/15 08:49:37;;;;;;;95.38;44.13;;;7.40;99.90;;;;;;5054139;28;20033;-69
2022/11/15 08:52:03;;;;;;;96.13;43.33;;;7.50;99.90;;;;;;5056011;28;20373;-69
2022/11/15 08:54:28;;;;;;;109.07;46.85;;;7.50;99.90;;;;;;5055987;28;20068;-69
2022/11/15 08:56:54;;;;;;;103.15;46.15;;;7.60;99.90;;;;;;5055959;28;20070;-69
2022/11/15 08:59:19;;;;;;;112.55;45.97;;;7.60;99.90;;;;;;5056402;28;20025;-69
2022/11/15 09:01:45;;;;;;;108.30;46.58;;;7.70;99.90;;;;;;5055340;28;20492;-69
2022/11/15 09:04:10;;;;;;;122.00;46.80;;;7.70;99.90;;;;;;5055727;28;20082;-69
2022/11/15 09:06:36;;;;;;;101.50;44.83;;;7.80;99.90;;;;;;5055754;28;20369;-69
2022/11/15 09:09:03;;;;;;;108.13;45.97;;;7.90;99.90;;;;;;5055538;28;20079;-69
2022/11/15 09:11:28;;;;;;;110.50;46.10;;;7.90;99.90;;;;;;5055606;28;20039;-69
2022/11/15 09:13:54;;;;;;;110.57;47.88;;;7.90;99.90;;;;;;5055526;28;20021;-69
2022/11/15 09:16:20;;;;;;;113.35;46.75;;;7.90;99.90;;;;;;5055474;28;20078;-69
2022/11/15 09:18:45;;;;;;;101.03;45.13;;;7.80;99.90;;;;;;5056047;28;20028;-69
2022/11/15 09:21:11;;;;;;;104.15;44.38;;;7.80;99.90;;;;;;5055177;28;20384;-69
2022/11/15 09:23:37;;;;;;;97.68;45.13;;;7.80;99.90;;;;;;5055477;28;20381;-69
2022/11/15 09:26:04;;;;;;;94.97;44.75;;;7.90;99.90;;;;;;5055393;28;20108;-69
2022/11/15 09:28:30;;;;;;;103.10;47.88;;;7.90;99.90;;;;;;5054789;28;20111;-69
2022/11/15 09:30:58;;;;;;;96.18;47.13;;;7.90;99.90;;;;;;5055583;28;20048;-70
2022/11/15 09:33:24;;;;;;;100.15;44.60;;;7.90;99.90;;;;;;5055447;28;20025;-70
2022/11/15 09:35:49;;;;;;;108.30;47.13;;;7.90;99.90;;;;;;5055063;28;20131;-70
2022/11/15 09:38:15;;;;;;;100.53;46.38;;;7.90;99.90;;;;;;5054750;28;20503;-69
2022/11/15 09:40:40;;;;;;;93.72;46.95;;;7.90;99.90;;;;;;5055324;28;20033;-69
2022/11/15 09:43:53;;;;;;;93.00;44.70;;;7.90;99.90;;;;;;5055394;28;20025;-69
2022/11/15 09:46:40;;;;;;;100.60;45.83;;;7.90;99.90;;;;;;5009054;28;20029;-69
2022/11/15 09:49:08;;;;;;;103.57;47.78;;;7.80;99.90;;;;;;5055250;28;20021;-70
2022/11/15 09:51:46;;;;;;;98.20;46.65;;;7.90;99.90;;;;;;5054526;28;20014;-69
2022/11/15 09:54:28;;;;;;;97.50;44.55;;;7.90;99.90;;;;;;5054962;28;20028;-69
2022/11/15 09:57:04;;;;;;;92.10;44.88;;;8.00;99.90;;;;;;5055273;28;20025;-69
2022/11/15 09:59:48;;;;;;;92.57;43.95;;;8.00;99.90;;;;;;5054957;28;20029;-69
2022/11/15 10:02:50;;;;;;;86.57;43.38;;;8.10;99.90;;;;;;5054878;28;20036;-69
2022/11/15 10:05:20;;;;;;;86.80;43.60;;;8.10;99.90;;;;;;5054452;28;20029;-69
2022/11/15 10:08:22;;;;;;;84.05;41.67;;;8.10;99.90;;;;;;5054588;28;20025;-69
2022/11/15 10:10:53;;;;;;;91.25;41.00;;;8.20;99.90;;;;;;5054620;28;20112;-69
2022/11/15 10:13:23;;;;;;;94.68;42.78;;;8.30;99.90;;;;;;5054644;28;20121;-69
2022/11/15 10:15:50;;;;;;;88.72;43.30;;;8.40;99.90;;;;;;5053537;28;20546;-69
2022/11/15 10:18:21;;;;;;;86.30;43.38;;;8.50;99.90;;;;;;5065645;28;20021;-69
2022/11/15 10:20:55;;;;;;;84.80;42.08;;;8.40;99.90;;;;;;5056172;28;20096;-69
2022/11/15 10:23:23;;;;;;;91.90;42.45;;;8.40;99.90;;;;;;5054114;28;20104;-69
2022/11/15 10:25:53;;;;;;;81.03;41.25;;;8.40;99.90;;;;;;5054230;28;20472;-69
2022/11/15 10:28:31;;;;;;;76.50;38.95;;;8.50;99.90;;;;;;5054452;28;20032;-69
2022/11/15 10:30:58;;;;;;;72.80;40.20;;;8.40;99.90;;;;;;5053791;28;20028;-69
2022/11/15 10:33:25;;;;;;;83.60;39.50;;;8.50;99.90;;;;;;5054181;28;20021;-69
2022/11/15 10:36:09;;;;;;;75.68;39.78;;;8.40;99.90;;;;;;5053967;28;20029;-69
2022/11/15 10:38:50;;;;;;;70.97;36.60;;;8.50;99.90;;;;;;5053927;28;20029;-69
2022/11/15 10:41:23;;;;;;;83.07;41.75;;;8.60;99.90;;;;;;5053681;28;20123;-69
2022/11/15 10:44:06;;;;;;;79.37;41.00;;;8.60;99.90;;;;;;5054130;28;20480;-69
2022/11/15 10:46:36;;;;;;;71.10;37.90;;;8.50;99.90;;;;;;5054032;28;20442;-69
2022/11/15 10:49:29;;;;;;;72.72;37.15;;;8.60;99.90;;;;;;5053770;28;20033;-69
2022/11/15 10:52:11;;;;;;;65.50;35.88;;;8.50;99.90;;;;;;5051381;28;20445;-69
2022/11/15 10:54:53;;;;;;;67.05;36.10;;;8.60;99.90;;;;;;5053907;28;20040;-69
2022/11/15 10:57:23;;;;;;;61.53;34.88;;;8.60;99.90;;;;;;5054003;28;20098;-69
2022/11/15 10:59:52;;;;;;;64.18;35.58;;;8.60;99.90;;;;;;5053943;28;20036;-69
2022/11/15 11:02:38;;;;;;;71.38;36.80;;;8.60;99.90;;;;;;5053206;28;20439;-69
2022/11/15 11:05:24;;;;;;;68.43;35.63;;;8.60;99.90;;;;;;5053817;28;20025;-69
2022/11/15 11:08:19;;;;;;;67.95;35.75;;;8.60;99.90;;;;;;5053614;28;20048;-69
2022/11/15 11:10:56;;;;;;;72.95;36.15;;;8.70;99.90;;;;;;5045499;28;20098;-69
2022/11/15 11:13:27;;;;;;;67.78;34.72;;;8.70;99.90;;;;;;5053047;28;20392;-69
2022/11/15 11:16:00;;;;;;;65.78;35.10;;;8.60;99.90;;;;;;5053259;28;20439;-69
2022/11/15 11:18:37;;;;;;;55.95;33.22;;;8.60;99.90;;;;;;5053539;28;20527;-69
2022/11/15 11:21:09;;;;;;;70.43;35.58;;;8.70;99.90;;;;;;5053446;28;20383;-69
2022/11/15 11:23:35;;;;;;;62.60;34.72;;;8.70;99.90;;;;;;5053619;28;20025;-69
2022/11/15 11:26:18;;;;;;;65.57;33.65;;;8.70;99.90;;;;;;5052767;28;20029;-68
2022/11/15 11:29:08;;;;;;;63.45;35.13;;;8.80;99.90;;;;;;5053315;28;20035;-69
2022/11/15 11:32:05;;;;;;;62.58;32.13;;;8.70;99.90;;;;;;5053531;28;20028;-69
2022/11/15 11:35:06;;;;;;;58.95;32.75;;;8.80;99.90;;;;;;5053445;28;20621;-69
2022/11/15 11:37:47;;;;;;;77.78;36.67;;;8.80;99.90;;;;;;5052962;28;20095;-69
2022/11/15 11:40:30;;;;;;;64.40;34.40;;;8.80;99.90;;;;;;5053491;28;20411;-69
2022/11/15 11:43:27;;;;;;;66.20;34.83;;;8.70;99.90;;;;;;5053152;28;20033;-69
2022/11/15 11:46:21;;;;;;;60.35;33.60;;;8.70;99.90;;;;;;5053219;28;20119;-69
2022/11/15 11:48:52;;;;;;;;;;;8.80;99.90;;;;;;5053262;28;20020;-69
2022/11/15 11:51:18;;;;;;;60.83;34.60;;;8.80;99.90;;;;;;5053087;28;19911;-69
2022/11/15 11:53:54;;;;;;;62.58;35.25;;;8.80;99.90;;;;;;5052814;28;20025;-69
2022/11/15 11:56:23;;;;;;;66.18;34.85;;;8.90;99.90;;;;;;5053267;28;20039;-69
2022/11/15 11:58:52;;;;;;;61.45;34.35;;;8.90;99.90;;;;;;5052770;28;20017;-69
2022/11/15 12:01:35;;;;;;;62.35;34.40;;;8.90;99.90;;;;;;5053147;28;20052;-69
2022/11/15 12:04:24;;;;;;;61.72;34.75;;;8.90;99.90;;;;;;5053229;28;20025;-69
2022/11/15 12:07:11;;;;;;;65.35;36.78;;;8.90;99.90;;;;;;5053138;28;20378;-69
2022/11/15 12:09:44;;;;;;;64.60;33.45;;;8.90;99.90;;;;;;5052590;28;20035;-69
2022/11/15 12:12:09;;;;;;;62.60;33.42;;;8.90;99.90;;;;;;5053470;28;20383;-69
2022/11/15 12:14:50;;;;;;;63.05;33.30;;;9.00;99.90;;;;;;5053118;28;20025;-69
2022/11/15 12:17:21;;;;;;;65.00;33.53;;;9.00;99.90;;;;;;5053035;28;20075;-69
2022/11/15 12:19:47;;;;;;;67.45;34.35;;;9.00;99.90;;;;;;5051331;28;20388;-69
2022/11/15 12:22:22;;;;;;;60.10;33.40;;;9.10;99.90;;;;;;5052938;28;20021;-69
2022/11/15 12:24:57;;;;;;;55.72;31.40;;;9.10;99.90;;;;;;5055470;28;20067;-69
2022/11/15 12:27:41;;;;;;;58.72;33.15;;;9.10;99.90;;;;;;5056365;28;20484;-69
2022/11/15 12:30:16;;;;;;;55.20;32.47;;;9.10;99.90;;;;;;5056572;28;20172;-69
2022/11/15 12:32:59;;;;;;;54.33;31.98;;;9.10;99.90;;;;;;5056652;28;20033;-69
2022/11/15 12:35:36;;;;;;;56.78;31.15;;;9.10;99.90;;;;;;5056180;28;20119;-69
2022/11/15 12:38:03;;;;;;;50.58;30.55;;;9.10;99.90;;;;;;5056652;28;20037;-69
2022/11/15 12:40:34;;;;;;;55.28;30.63;;;9.10;99.90;;;;;;5056333;28;20357;-69
2022/11/15 12:43:15;;;;;;;53.65;32.03;;;9.10;99.90;;;;;;5056206;28;20029;-69
2022/11/15 12:45:43;;;;;;;54.78;31.83;;;9.20;99.90;;;;;;5056586;28;20029;-70
2022/11/15 12:48:18;;;;;;;52.45;31.02;;;9.20;99.90;;;;;;5055813;28;20036;-69
2022/11/15 12:50:55;;;;;;;63.28;32.15;;;9.30;99.90;;;;;;5056358;28;20036;-69
2022/11/15 12:53:26;;;;;;;57.17;31.42;;;9.30;99.90;;;;;;5056022;28;20079;-69
2022/11/15 12:56:04;;;;;;;57.63;31.25;;;9.40;99.90;;;;;;5056154;28;20024;-69
2022/11/15 12:59:06;;;;;;;55.03;30.75;;;9.50;99.90;;;;;;5056025;28;20092;-69
2022/11/15 13:01:32;;;;;;;55.88;29.88;;;9.70;99.90;;;;;;4994653;28;20022;-69
2022/11/15 13:04:24;;;;;;;54.70;32.05;;;9.80;99.90;;;;;;5043300;28;20033;-69